Elkhart Lake, Wisconsin
Current Conditions -  °F | °C
As of 4:53 PM on Thursday 23 Oct 2014 (Local Time) from KSBM Reporting Station
Light Rain Light Rain  
Wind Chill: 50°   Ceiling: 6500
Heat Index: 50°   Visibility: 4mi
Dew Point: 47°   Wind: 7mph
Humidity: 89%   Direction: 170°S
Pressure: 30.07"   Gusts: NA
Location:  43.83°N, 88.02°W
Report Text: KSBM 232153Z AUTO 17006KT 4SM -RA BR FEW046 OVC065 10/08 A3007 RMK AO2 SLP188 P0002 T01000083
Loading
Personal Weather Stations






























Interactive Weather Map New forecast layout! Learn more

10-Day Weather Forecast

Advertisements
Track Severe Weather on mobile